Time;durP1;ratioP1;P1;durP2;ratioP2;P2;SDS_P1;SDS_P2;PMS_P1;PMS_P2;Temp;Humidity;BMP_temperature;BMP_pressure;BME280_temperature;BME280_humidity;BME280_pressure;Samples;Min_cycle;Max_cycle;Signal;HPM_P1;HPM_P2
2023/01/28 00:01:55;;;;;;;2.55;1.73;;;;;;;-0.02;94.78;94010.22;5111900;28;20201;-76
2023/01/28 00:04:21;;;;;;;2.92;1.77;;;;;;;0.04;94.41;94013.63;5111775;28;20684;-76
2023/01/28 00:06:48;;;;;;;3.38;1.52;;;;;;;0.05;94.68;94014.41;5110809;28;20243;-75
2023/01/28 00:09:15;;;;;;;1.70;1.33;;;;;;;0.09;94.78;94015.44;5111802;28;20431;-76
2023/01/28 00:11:42;;;;;;;2.22;1.45;;;;;;;0.13;95.24;94016.50;5111645;28;20298;-76
2023/01/28 00:14:12;;;;;;;2.83;1.80;;;;;;;0.05;94.45;94025.84;5110755;28;20598;-76
2023/01/28 00:16:40;;;;;;;2.13;1.40;;;;;;;0.08;94.38;94037.81;5111145;28;20777;-77
2023/01/28 00:19:07;;;;;;;2.40;1.83;;;;;;;-0.04;94.79;94028.31;5111171;28;20633;-77
2023/01/28 00:21:34;;;;;;;3.90;2.40;;;;;;;-0.03;95.01;94040.56;5110698;28;20676;-77
2023/01/28 00:24:01;;;;;;;2.13;1.00;;;;;;;-0.05;95.30;94042.69;5110154;28;20275;-76
2023/01/28 00:26:28;;;;;;;2.55;1.88;;;;;;;-0.01;95.15;94040.28;5110539;28;20948;-78
2023/01/28 00:28:56;;;;;;;3.17;1.80;;;;;;;0.04;94.69;94040.22;5111963;28;20604;-76
2023/01/28 00:31:26;;;;;;;1.83;1.00;;;;;;;0.02;94.61;94036.25;5118032;28;20251;-76
2023/01/28 00:33:56;;;;;;;3.70;1.50;;;;;;;0.04;94.55;94044.75;5094720;28;20206;-79
2023/01/28 00:36:24;;;;;;;4.15;1.50;;;;;;;-0.01;94.43;94051.72;5110985;28;20286;-77
2023/01/28 00:38:52;;;;;;;2.92;1.75;;;;;;;0.05;94.77;94046.34;5110519;28;20209;-76
2023/01/28 00:41:24;;;;;;;3.38;1.50;;;;;;;0.11;94.00;94039.94;5110125;28;20201;-76
2023/01/28 00:43:51;;;;;;;1.42;1.23;;;;;;;0.07;94.15;94049.53;5109692;28;20729;-76
2023/01/28 00:46:19;;;;;;;3.45;1.70;;;;;;;0.19;94.20;94057.97;5109701;28;20214;-77
2023/01/28 00:48:46;;;;;;;3.78;2.08;;;;;;;0.18;93.71;94046.53;5110254;28;20803;-77
2023/01/28 00:51:17;;;;;;;3.63;2.25;;;;;;;0.28;93.93;94053.63;5097467;28;20247;-78
2023/01/28 00:53:44;;;;;;;1.83;1.40;;;;;;;0.11;93.11;94051.38;5090071;28;20234;-76
2023/01/28 00:56:14;;;;;;;2.90;1.70;;;;;;;0.12;93.51;94055.63;5103041;28;20198;-77
2023/01/28 00:58:41;;;;;;;2.45;1.88;;;;;;;0.05;93.57;94054.34;5109800;28;20254;-77
2023/01/28 01:01:10;;;;;;;1.92;1.38;;;;;;;0.18;93.95;94053.72;5110030;28;20208;-76
2023/01/28 01:03:37;;;;;;;3.22;1.77;;;;;;;0.03;93.88;94048.50;5110088;28;20745;-76
2023/01/28 01:06:05;;;;;;;2.65;1.75;;;;;;;0.18;94.09;94059.03;5109377;28;20270;-77
2023/01/28 01:08:38;;;;;;;3.80;1.85;;;;;;;0.12;93.35;94052.19;5109606;28;20198;-76
2023/01/28 01:11:07;;;;;;;1.13;1.02;;;;;;;0.06;93.77;94042.63;5109704;28;20193;-77
2023/01/28 01:13:34;;;;;;;2.55;2.17;;;;;;;0.22;93.57;94052.09;5109980;28;20197;-77
2023/01/28 01:16:03;;;;;;;3.60;1.63;;;;;;;0.31;93.53;94050.44;5109614;28;20201;-77
2023/01/28 01:18:29;;;;;;;3.75;1.27;;;;;;;0.17;93.02;94050.25;5109743;28;20289;-77
2023/01/28 01:20:57;;;;;;;2.00;1.40;;;;;;;0.17;93.74;94060.13;5096236;28;20664;-77
2023/01/28 01:23:25;;;;;;;5.30;2.40;;;;;;;0.32;93.77;94057.34;5110337;28;20221;-76
2023/01/28 01:25:53;;;;;;;3.78;1.42;;;;;;;0.35;93.36;94057.59;5109452;28;20246;-76
2023/01/28 01:28:21;;;;;;;2.75;1.45;;;;;;;0.29;92.98;94063.22;5109911;28;20731;-76
2023/01/28 01:30:48;;;;;;;4.05;2.03;;;;;;;0.21;92.97;94055.84;5109372;28;20652;-76
2023/01/28 01:33:15;;;;;;;3.45;2.15;;;;;;;0.11;93.18;94055.91;5109386;28;20221;-75
2023/01/28 01:35:42;;;;;;;7.20;1.60;;;;;;;0.15;93.75;94062.25;5095549;28;20290;-76
2023/01/28 01:38:09;;;;;;;5.05;2.25;;;;;;;0.13;93.88;94064.44;5109465;28;20255;-76
2023/01/28 01:40:35;;;;;;;1.92;1.33;;;;;;;-0.05;93.97;94057.88;5109245;28;20218;-77
2023/01/28 01:43:15;;;;;;;2.83;2.10;;;;;;;-0.17;94.40;94065.38;5097443;28;20206;-77
2023/01/28 01:45:44;;;;;;;2.72;1.92;;;;;;;-0.16;94.83;94059.81;5096252;28;20757;-76
2023/01/28 01:48:16;;;;;;;5.13;1.80;;;;;;;-0.05;95.04;94061.31;5109512;28;20243;-77
2023/01/28 01:50:49;;;;;;;3.28;2.35;;;;;;;-0.04;94.37;94070.09;5109823;28;20190;-76
2023/01/28 01:53:19;;;;;;;3.58;2.58;;;;;;;-0.01;94.05;94058.91;5109555;28;20217;-77
2023/01/28 01:55:48;;;;;;;2.88;2.05;;;;;;;-0.08;94.59;94053.09;5109381;28;20209;-76
2023/01/28 01:58:21;;;;;;;4.20;2.55;;;;;;;-0.16;94.21;94057.13;5108934;28;20652;-76
2023/01/28 02:00:48;;;;;;;3.50;1.80;;;;;;;-0.04;94.54;94065.59;5109415;28;20186;-76
2023/01/28 02:03:19;;;;;;;2.08;1.70;;;;;;;-0.16;94.70;94077.63;5090415;28;20202;-75
2023/01/28 02:05:46;;;;;;;3.20;1.88;;;;;;;-0.10;94.70;94072.00;5100651;28;20195;-76
2023/01/28 02:08:21;;;;;;;2.90;1.45;;;;;;;-0.04;95.21;94073.56;5109409;28;20197;-76
2023/01/28 02:10:50;;;;;;;2.05;1.30;;;;;;;-0.18;94.78;94075.25;5109323;28;20705;-76
2023/01/28 02:13:21;;;;;;;2.92;1.95;;;;;;;-0.13;95.21;94072.53;5095654;28;20703;-77
2023/01/28 02:15:49;;;;;;;4.03;2.47;;;;;;;-0.11;94.51;94070.41;5109225;28;20198;-75
2023/01/28 02:18:16;;;;;;;2.75;2.05;;;;;;;-0.01;94.50;94082.88;5109265;28;20259;-76
2023/01/28 02:21:05;;;;;;;1.58;1.48;;;;;;;-0.04;95.22;94064.78;5108902;28;20729;-76
2023/01/28 02:23:48;;;;;;;2.38;1.48;;;;;;;-0.10;94.33;94079.97;5109138;28;20222;-76
2023/01/28 02:26:42;;;;;;;1.38;1.27;;;;;;;0.03;93.88;94075.91;5108958;28;20246;-76
2023/01/28 02:29:15;;;;;;;2.15;1.42;;;;;;;0.06;93.63;94086.00;5110030;28;20190;-76
2023/01/28 02:31:49;;;;;;;3.08;2.08;;;;;;;-0.03;93.63;94082.34;5112709;28;20560;-76
2023/01/28 02:34:23;;;;;;;3.55;1.45;;;;;;;0.00;94.70;94079.91;5112799;28;20198;-75
2023/01/28 02:36:55;;;;;;;1.95;1.48;;;;;;;-0.09;93.62;94078.91;5113182;28;20650;-76
2023/01/28 02:39:24;;;;;;;1.80;1.17;;;;;;;0.02;93.68;94076.19;5099607;28;20594;-77
2023/01/28 02:41:56;;;;;;;3.28;2.22;;;;;;;0.05;93.15;94078.31;5110717;28;20243;-76
2023/01/28 02:44:25;;;;;;;1.75;1.20;;;;;;;-0.08;93.78;94085.81;5109792;28;20247;-76
2023/01/28 02:49:41;;;;;;;1.70;1.60;;;;;;;-0.09;93.12;94084.22;5112660;28;20287;-76
2023/01/28 02:55:17;;;;;;;2.15;1.35;;;;;;;-0.07;93.37;94082.09;5111126;28;20193;-77
2023/01/28 02:57:52;;;;;;;1.50;1.40;;;;;;;-0.15;93.57;94084.53;5112424;28;20238;-76
2023/01/28 03:00:25;;;;;;;1.45;1.35;;;;;;;-0.22;93.51;94087.50;5110886;28;20570;-77
2023/01/28 03:03:02;;;;;;;1.05;0.95;;;;;;;-0.11;93.40;94075.72;5112133;28;20189;-76
2023/01/28 03:05:33;;;;;;;1.60;1.50;;;;;;;-0.16;93.60;94080.28;5112147;28;20181;-76
2023/01/28 03:09:21;;;;;;;1.85;1.23;;;;;;;-0.09;93.82;94089.56;5112533;28;20239;-76
2023/01/28 03:38:40;;;;;;;5.65;3.97;;;;;;;-0.17;93.59;94103.44;5107145;28;20663;-77
2023/01/28 03:41:09;;;;;;;8.20;5.13;;;;;;;-0.18;93.51;94099.19;5111214;28;20437;-76
2023/01/28 03:43:36;;;;;;;7.55;4.65;;;;;;;-0.16;93.86;94104.25;5102337;28;20202;-77
2023/01/28 03:46:05;;;;;;;7.88;4.85;;;;;;;-0.03;93.76;94107.09;5099560;28;20256;-76
2023/01/28 03:48:33;;;;;;;6.22;4.47;;;;;;;-0.09;93.65;94105.53;5095122;28;20198;-76
2023/01/28 03:51:00;;;;;;;7.38;4.97;;;;;;;0.00;93.60;94103.88;5102819;28;20202;-75
2023/01/28 03:53:27;;;;;;;2.05;1.30;;;;;;;0.00;93.24;94098.53;5108391;28;20312;-77
2023/01/28 03:55:55;;;;;;;2.00;1.52;;;;;;;-0.11;93.03;94102.34;5106937;28;20206;-77
2023/01/28 03:58:25;;;;;;;2.65;1.55;;;;;;;-0.19;93.40;94110.91;5111355;28;20236;-76
2023/01/28 04:00:53;;;;;;;1.50;1.30;;;;;;;-0.11;93.45;94110.31;5111157;28;20186;-76
2023/01/28 04:03:21;;;;;;;1.73;1.23;;;;;;;-0.17;93.88;94114.09;5110585;28;20198;-76
2023/01/28 04:06:00;;;;;;;2.95;1.77;;;;;;;-0.08;93.08;94123.09;5111197;28;20206;-77
2023/01/28 04:08:27;;;;;;;1.63;1.52;;;;;;;-0.09;92.88;94110.06;5098341;28;20305;-77
2023/01/28 04:10:54;;;;;;;2.35;1.73;;;;;;;-0.18;93.02;94120.47;5111056;28;20202;-76
2023/01/28 04:13:21;;;;;;;2.28;1.45;;;;;;;-0.14;93.10;94118.88;5110607;28;20229;-76
2023/01/28 04:15:48;;;;;;;1.23;0.98;;;;;;;-0.18;92.74;94107.19;5110869;28;20266;-77
2023/01/28 04:18:15;;;;;;;2.28;1.52;;;;;;;-0.16;91.81;94120.22;5103733;28;20359;-77
2023/01/28 04:20:42;;;;;;;2.63;1.83;;;;;;;-0.21;92.03;94131.66;5110725;28;20197;-77
2023/01/28 04:23:10;;;;;;;3.80;1.63;;;;;;;-0.26;92.18;94126.34;5111091;28;20217;-76
2023/01/28 04:25:36;;;;;;;1.02;0.70;;;;;;;-0.20;92.63;94135.13;5111190;28;20206;-76
2023/01/28 04:28:03;;;;;;;6.68;2.03;;;;;;;-0.25;92.63;94133.28;5110849;28;20594;-76
2023/01/28 04:30:30;;;;;;;1.42;1.33;;;;;;;-0.34;93.11;94129.59;5110838;28;20209;-76
2023/01/28 04:32:57;;;;;;;2.15;0.90;;;;;;;-0.19;93.39;94136.72;5110419;28;20221;-76
2023/01/28 04:35:24;;;;;;;2.40;1.85;;;;;;;-0.10;93.40;94141.19;5110248;28;20354;-76
2023/01/28 04:37:50;;;;;;;2.17;1.48;;;;;;;-0.22;93.72;94131.94;5110195;28;20270;-77
2023/01/28 04:40:19;;;;;;;3.42;2.05;;;;;;;-0.27;93.56;94140.72;5110118;28;20193;-75
2023/01/28 04:42:53;;;;;;;2.20;1.80;;;;;;;-0.34;93.90;94144.75;5110148;28;20259;-76
2023/01/28 04:45:20;;;;;;;2.80;1.80;;;;;;;-0.38;94.30;94149.81;5110404;28;20193;-75
2023/01/28 04:47:46;;;;;;;1.10;1.00;;;;;;;-0.35;94.58;94149.28;5110018;28;20566;-75
2023/01/28 04:50:13;;;;;;;3.88;2.13;;;;;;;-0.37;94.44;94146.09;5110442;28;20875;-77
2023/01/28 04:52:40;;;;;;;2.58;2.00;;;;;;;-0.32;95.13;94156.72;5110140;28;21059;-76
2023/01/28 04:55:07;;;;;;;2.30;1.40;;;;;;;-0.20;95.37;94162.53;5110359;28;20206;-76
2023/01/28 04:57:35;;;;;;;3.22;1.98;;;;;;;-0.28;94.48;94155.13;5110648;28;20466;-75
2023/01/28 05:00:02;;;;;;;2.20;1.77;;;;;;;-0.27;94.86;94162.00;5110319;28;20247;-76
2023/01/28 05:02:29;;;;;;;2.42;1.40;;;;;;;-0.19;95.49;94158.81;5110426;28;20202;-77
2023/01/28 05:04:56;;;;;;;4.05;2.10;;;;;;;-0.26;95.43;94162.81;5109920;28;20205;-76
2023/01/28 05:07:23;;;;;;;2.67;1.65;;;;;;;-0.39;95.37;94164.19;5110308;28;20315;-77
2023/01/28 05:09:50;;;;;;;3.13;1.25;;;;;;;-0.31;95.33;94160.19;5109958;28;20733;-77
2023/01/28 05:12:16;;;;;;;2.25;1.20;;;;;;;-0.44;95.58;94172.19;5110395;28;20200;-76
2023/01/28 05:14:44;;;;;;;3.15;1.25;;;;;;;-0.57;95.81;94183.41;5110310;28;20195;-77
2023/01/28 05:17:11;;;;;;;3.38;1.75;;;;;;;-0.45;96.62;94176.72;5110022;28;20201;-76
2023/01/28 05:19:38;;;;;;;1.77;1.63;;;;;;;-0.52;96.48;94178.03;5109655;28;20194;-76
2023/01/28 05:22:05;;;;;;;3.35;1.58;;;;;;;-0.49;96.06;94183.63;5110212;28;20206;-77
2023/01/28 05:24:31;;;;;;;3.63;1.65;;;;;;;-0.42;95.55;94191.34;5110153;28;20218;-76
2023/01/28 05:26:58;;;;;;;2.65;1.75;;;;;;;-0.35;95.61;94175.88;5109676;28;20255;-77
2023/01/28 05:29:25;;;;;;;3.30;2.38;;;;;;;-0.42;94.47;94188.69;5109319;28;20747;-77
2023/01/28 05:31:53;;;;;;;3.72;2.35;;;;;;;-0.35;94.63;94189.19;5109561;28;20206;-75
2023/01/28 05:34:20;;;;;;;2.30;1.75;;;;;;;-0.36;93.88;94179.59;5109580;28;20357;-76
2023/01/28 05:36:47;;;;;;;3.85;2.40;;;;;;;-0.35;93.09;94186.53;5109454;28;20213;-77
2023/01/28 05:39:13;;;;;;;6.68;2.20;;;;;;;-0.37;92.96;94196.63;5109413;28;20206;-77
2023/01/28 05:41:40;;;;;;;0.77;0.63;;;;;;;-0.36;93.22;94190.25;5109371;28;20205;-76
2023/01/28 05:44:07;;;;;;;1.83;1.38;;;;;;;-0.29;93.13;94196.09;5109541;28;20198;-75
2023/01/28 05:46:34;;;;;;;2.42;1.60;;;;;;;-0.17;93.07;94193.94;5109128;28;20197;-76
2023/01/28 05:49:02;;;;;;;3.67;2.17;;;;;;;-0.05;92.79;94199.75;5109327;28;20265;-76
2023/01/28 05:51:28;;;;;;;2.70;1.63;;;;;;;-0.13;92.41;94192.31;5108597;28;20549;-77
2023/01/28 05:53:55;;;;;;;1.40;1.08;;;;;;;-0.09;92.36;94192.56;5109647;28;20298;-76
2023/01/28 05:56:22;;;;;;;2.85;1.58;;;;;;;-0.13;92.28;94200.28;5109688;28;20201;-77
2023/01/28 05:58:49;;;;;;;1.13;1.02;;;;;;;-0.23;92.45;94195.00;5109479;28;20198;-76
2023/01/28 06:01:15;;;;;;;4.72;2.47;;;;;;;-0.42;92.58;94196.66;5109440;28;20205;-77
2023/01/28 06:03:42;;;;;;;1.75;1.42;;;;;;;-0.32;92.32;94201.97;5112372;28;20626;-76
2023/01/28 06:06:10;;;;;;;2.53;2.00;;;;;;;-0.24;92.64;94213.91;5113590;28;20205;-76
2023/01/28 06:08:37;;;;;;;2.33;1.65;;;;;;;-0.27;91.99;94209.91;5113659;28;20956;-75
2023/01/28 06:11:04;;;;;;;2.72;1.75;;;;;;;-0.24;92.01;94222.69;5113300;28;20202;-75
2023/01/28 06:13:31;;;;;;;2.05;1.42;;;;;;;-0.23;92.09;94221.63;5113859;28;20225;-76
2023/01/28 06:15:57;;;;;;;4.43;2.00;;;;;;;-0.32;91.75;94233.88;5113871;28;20216;-76
2023/01/28 06:18:24;;;;;;;2.35;1.70;;;;;;;-0.28;92.43;94234.94;5113405;28;20194;-76
2023/01/28 06:20:52;;;;;;;1.88;1.55;;;;;;;-0.21;92.57;94235.44;5113135;28;20202;-77
2023/01/28 06:23:20;;;;;;;4.68;2.25;;;;;;;-0.32;92.66;94239.22;5113560;28;20221;-75
2023/01/28 06:25:47;;;;;;;2.72;2.25;;;;;;;-0.19;92.47;94249.28;5113482;28;20733;-77
2023/01/28 06:28:13;;;;;;;3.42;1.55;;;;;;;-0.39;92.81;94236.81;5113168;28;20672;-78
2023/01/28 06:30:40;;;;;;;0.70;0.70;;;;;;;-0.29;92.22;94254.63;5113136;28;20670;-77
2023/01/28 06:33:07;;;;;;;2.95;2.17;;;;;;;-0.23;92.68;94258.88;5113521;28;20221;-76
2023/01/28 06:35:33;;;;;;;1.90;1.50;;;;;;;-0.15;93.26;94249.56;5112891;28;20230;-77
2023/01/28 06:38:00;;;;;;;2.97;1.58;;;;;;;-0.13;92.99;94255.38;5113209;28;20206;-76
2023/01/28 06:40:28;;;;;;;3.58;2.33;;;;;;;-0.01;93.14;94267.34;5112410;28;20286;-77
2023/01/28 06:42:55;;;;;;;2.65;1.63;;;;;;;0.05;91.72;94259.34;5113547;28;20205;-78
2023/01/28 06:45:22;;;;;;;2.75;1.70;;;;;;;0.08;91.58;94264.13;5113122;28;20194;-77
2023/01/28 06:47:48;;;;;;;3.33;2.28;;;;;;;-0.08;91.50;94266.81;5112823;28;20664;-76
2023/01/28 06:50:15;;;;;;;3.22;1.60;;;;;;;-0.05;91.88;94276.94;5112831;28;20935;-77
2023/01/28 06:52:42;;;;;;;3.45;2.30;;;;;;;-0.06;91.83;94280.66;5112621;28;20239;-78
2023/01/28 06:55:09;;;;;;;1.77;1.65;;;;;;;-0.08;91.88;94282.78;5112573;28;20283;-78
2023/01/28 06:57:39;;;;;;;3.70;2.35;;;;;;;-0.05;92.09;94282.25;5113517;28;20182;-77
2023/01/28 07:00:09;;;;;;;4.07;2.22;;;;;;;-0.03;91.22;94290.78;5113190;28;20259;-77
2023/01/28 07:02:36;;;;;;;2.80;1.73;;;;;;;0.06;91.72;94292.88;5112904;28;20208;-75
2023/01/28 07:05:02;;;;;;;6.60;1.83;;;;;;;-0.14;92.05;94289.22;5098716;28;20266;-76
2023/01/28 07:07:29;;;;;;;2.95;2.00;;;;;;;-0.15;91.95;94298.25;5112386;28;20527;-78
2023/01/28 07:09:56;;;;;;;2.58;1.88;;;;;;;-0.09;91.51;94291.84;5111876;28;20617;-79
2023/01/28 07:12:23;;;;;;;4.43;2.20;;;;;;;-0.19;92.05;94297.19;5111962;28;20204;-79
2023/01/28 07:14:51;;;;;;;2.22;1.67;;;;;;;-0.12;92.18;94294.25;5111263;28;20227;-82
2023/01/28 07:17:18;;;;;;;3.22;2.60;;;;;;;-0.11;91.75;94304.63;5098359;28;20256;-77
2023/01/28 07:19:44;;;;;;;2.42;1.58;;;;;;;-0.02;91.71;94313.69;5091817;28;20280;-78
2023/01/28 07:22:11;;;;;;;1.95;1.38;;;;;;;0.05;91.79;94312.59;5105378;28;20679;-77
2023/01/28 07:24:38;;;;;;;2.53;1.67;;;;;;;0.11;91.52;94316.84;5098212;28;20294;-78
2023/01/28 07:27:05;;;;;;;3.50;1.92;;;;;;;0.05;91.12;94312.59;5111599;28;20198;-78
2023/01/28 07:29:32;;;;;;;1.50;1.05;;;;;;;0.05;91.32;94323.22;5111973;28;20279;-78
2023/01/28 07:32:01;;;;;;;2.75;2.35;;;;;;;-0.01;91.25;94317.94;5112370;28;20660;-77
2023/01/28 07:34:27;;;;;;;6.20;2.88;;;;;;;-0.07;91.36;94326.97;5112299;28;20237;-78
2023/01/28 07:36:55;;;;;;;5.38;2.08;;;;;;;-0.05;91.48;94334.69;5111882;28;20239;-75
2023/01/28 07:39:21;;;;;;;3.38;2.42;;;;;;;-0.04;91.72;94336.31;5111692;28;20839;-77
2023/01/28 07:41:48;;;;;;;2.92;2.53;;;;;;;0.16;91.35;94336.25;5111278;28;20254;-76
2023/01/28 07:44:15;;;;;;;3.50;1.88;;;;;;;0.10;91.27;94336.53;5111561;28;20727;-78
2023/01/28 07:46:41;;;;;;;4.93;3.20;;;;;;;0.07;90.59;94342.41;5111662;28;20205;-78
2023/01/28 07:49:10;;;;;;;5.53;3.60;;;;;;;-0.08;90.83;94341.34;5112237;28;20201;-76
2023/01/28 07:51:39;;;;;;;8.07;2.97;;;;;;;0.11;90.64;94348.78;5112330;28;20201;-78
2023/01/28 07:54:06;;;;;;;3.47;2.13;;;;;;;0.18;89.84;94346.63;5111510;28;20233;-79
2023/01/28 07:56:32;;;;;;;5.32;3.40;;;;;;;0.41;90.18;94346.03;5111779;28;20258;-77
2023/01/28 07:59:02;;;;;;;3.25;2.17;;;;;;;0.52;89.29;94344.97;5100579;28;20197;-79
2023/01/28 08:01:28;;;;;;;4.40;2.42;;;;;;;0.49;88.50;94345.50;5106708;28;20560;-78
2023/01/28 08:03:55;;;;;;;4.28;2.55;;;;;;;0.60;88.28;94352.38;5105641;28;20736;-81
2023/01/28 08:06:23;;;;;;;3.38;2.38;;;;;;;0.60;88.14;94347.06;5111211;28;20212;-79
2023/01/28 08:08:50;;;;;;;3.78;2.20;;;;;;;0.36;89.19;94351.41;5104414;28;20635;-79
2023/01/28 08:11:17;;;;;;;6.25;3.05;;;;;;;0.58;88.72;94351.06;5107602;28;20198;-79
2023/01/28 08:13:43;;;;;;;5.57;3.05;;;;;;;0.30;88.25;94344.47;5107404;28;20780;-79
2023/01/28 08:16:10;;;;;;;6.35;3.03;;;;;;;0.37;88.69;94345.00;5111775;28;20186;-79
2023/01/28 08:18:37;;;;;;;3.55;2.38;;;;;;;0.58;88.32;94348.38;5110886;28;20195;-79
2023/01/28 08:21:04;;;;;;;4.85;2.90;;;;;;;0.78;87.07;94352.84;5110655;28;20198;-78
2023/01/28 08:23:33;;;;;;;2.92;2.30;;;;;;;0.67;87.88;94362.78;5110503;28;20568;-78
2023/01/28 08:26:00;;;;;;;3.08;1.80;;;;;;;0.67;87.29;94368.91;5108044;28;20197;-79
2023/01/28 08:28:27;;;;;;;4.40;2.80;;;;;;;0.75;87.04;94358.72;5104575;28;20262;-78
2023/01/28 08:30:54;;;;;;;4.68;2.83;;;;;;;0.93;86.78;94360.78;5109293;28;20676;-78
2023/01/28 08:33:21;;;;;;;2.97;2.22;;;;;;;0.94;86.82;94359.72;5110494;28;20651;-79
2023/01/28 08:35:47;;;;;;;6.57;3.25;;;;;;;0.95;86.24;94363.97;5104156;28;20651;-79
2023/01/28 08:38:16;;;;;;;3.10;2.28;;;;;;;1.03;86.57;94356.19;5109851;28;20205;-80
2023/01/28 08:40:44;;;;;;;3.63;1.75;;;;;;;0.55;87.20;94355.06;5110444;28;20209;-80
2023/01/28 08:43:11;;;;;;;3.95;2.38;;;;;;;0.75;87.22;94359.53;5108501;28;20271;-80
2023/01/28 08:45:40;;;;;;;3.17;2.45;;;;;;;1.07;86.50;94367.13;5109440;28;20656;-80
2023/01/28 08:48:10;;;;;;;7.20;3.10;;;;;;;1.22;85.82;94361.72;5107884;28;20250;-80
2023/01/28 08:50:40;;;;;;;4.72;3.20;;;;;;;1.30;85.34;94362.97;5107076;28;20254;-78
2023/01/28 08:53:12;;;;;;;4.22;1.92;;;;;;;1.37;84.77;94356.25;5110354;28;20239;-80
2023/01/28 08:55:39;;;;;;;3.17;2.40;;;;;;;1.61;84.07;94374.28;5108947;28;20201;-84
2023/01/28 08:58:11;;;;;;;5.55;2.40;;;;;;;1.43;84.13;94365.03;5109329;28;20198;-81
2023/01/28 09:00:38;;;;;;;3.33;2.42;;;;;;;1.29;84.97;94367.53;5105113;28;20194;-81
2023/01/28 09:03:05;;;;;;;2.13;1.80;;;;;;;1.26;85.11;94360.06;5102807;28;20205;-81
2023/01/28 09:05:32;;;;;;;4.22;2.38;;;;;;;1.53;84.48;94372.19;5091741;28;20556;-80
2023/01/28 09:08:04;;;;;;;3.33;1.90;;;;;;;1.48;84.88;94366.88;5095440;28;20237;-83
2023/01/28 09:10:31;;;;;;;2.95;2.30;;;;;;;1.71;83.81;94366.19;5107019;28;20265;-80
2023/01/28 09:12:58;;;;;;;6.53;2.42;;;;;;;1.25;84.06;94361.13;5110505;28;20189;-83
2023/01/28 09:15:26;;;;;;;4.57;2.50;;;;;;;1.17;84.71;94372.41;5103165;28;20214;-79
2023/01/28 09:17:58;;;;;;;6.50;3.30;;;;;;;0.89;85.46;94370.41;5108106;28;20201;-76
2023/01/28 09:20:25;;;;;;;2.13;1.60;;;;;;;0.95;86.53;94374.66;5096803;28;20689;-79
2023/01/28 09:22:52;;;;;;;4.75;2.53;;;;;;;1.02;85.68;94373.28;5103682;28;20278;-78
2023/01/28 09:25:19;;;;;;;3.33;1.63;;;;;;;1.26;85.67;94385.94;5098721;28;20713;-76
2023/01/28 09:27:46;;;;;;;4.55;2.53;;;;;;;1.23;86.20;94365.94;5099967;28;20205;-77
2023/01/28 09:30:13;;;;;;;4.03;2.40;;;;;;;1.47;85.07;94367.97;5108015;28;20210;-80
2023/01/28 09:32:41;;;;;;;9.73;4.10;;;;;;;1.27;85.03;94366.19;5104082;28;20198;-77
2023/01/28 09:35:09;;;;;;;5.32;2.97;;;;;;;1.11;86.11;94368.16;5109144;28;20293;-77
2023/01/28 09:37:35;;;;;;;2.85;2.03;;;;;;;1.26;85.05;94369.94;5088632;28;20202;-76
2023/01/28 09:40:03;;;;;;;5.43;2.72;;;;;;;1.39;85.32;94367.47;5103244;28;20214;-77
2023/01/28 09:42:53;;;;;;;7.45;3.60;;;;;;;1.01;85.72;94361.00;5089224;28;20400;-76
2023/01/28 09:45:25;;;;;;;2.85;1.70;;;;;;;1.17;85.71;94372.41;5090949;28;20270;-77
2023/01/28 09:47:56;;;;;;;2.42;1.85;;;;;;;1.32;85.52;94363.50;5109223;28;20282;-77
2023/01/28 09:50:27;;;;;;;3.17;1.83;;;;;;;1.39;85.84;94362.13;5108639;28;20228;-78
2023/01/28 09:52:58;;;;;;;3.28;2.15;;;;;;;1.52;85.25;94373.25;5109112;28;20246;-77
2023/01/28 09:55:32;;;;;;;4.07;2.22;;;;;;;1.43;85.65;94371.19;5096524;28;20218;-77
2023/01/28 09:57:58;;;;;;;7.85;3.40;;;;;;;1.18;85.52;94358.00;5109370;28;20182;-77
2023/01/28 10:00:34;;;;;;;6.07;2.78;;;;;;;1.09;86.55;94362.31;5109862;28;20208;-77
2023/01/28 10:03:19;;;;;;;7.45;3.13;;;;;;;1.36;86.27;94365.38;5109847;28;20193;-77
2023/01/28 10:05:54;;;;;;;4.05;2.45;;;;;;;1.12;87.27;94369.75;5109454;28;20185;-77
2023/01/28 10:08:37;;;;;;;4.30;2.90;;;;;;;0.92;86.77;94364.53;5108378;28;20226;-76
2023/01/28 10:11:13;;;;;;;3.13;2.25;;;;;;;1.10;86.91;94363.88;5109407;28;20201;-78
2023/01/28 10:13:48;;;;;;;5.80;3.30;;;;;;;1.22;86.81;94356.38;5109503;28;20189;-77
2023/01/28 10:16:24;;;;;;;5.82;3.35;;;;;;;1.28;87.44;94357.13;5108835;28;20217;-78
2023/01/28 10:18:57;;;;;;;6.32;3.72;;;;;;;1.21;86.23;94354.78;5109448;28;20631;-77
2023/01/28 10:21:31;;;;;;;3.25;2.47;;;;;;;1.20;86.88;94358.53;5100966;28;20284;-77
2023/01/28 10:24:03;;;;;;;4.13;2.85;;;;;;;1.09;86.88;94356.97;5104049;28;20197;-78
2023/01/28 10:26:33;;;;;;;4.38;2.53;;;;;;;1.05;87.63;94358.59;5109873;28;20193;-78
2023/01/28 10:29:09;;;;;;;3.17;2.17;;;;;;;1.28;86.86;94362.47;5108903;28;20194;-78
2023/01/28 10:31:41;;;;;;;8.40;3.33;;;;;;;1.63;86.68;94358.78;5108265;28;20274;-79
2023/01/28 10:34:11;;;;;;;4.00;2.08;;;;;;;1.82;85.27;94357.00;5108797;28;20646;-82
2023/01/28 10:36:38;;;;;;;6.00;2.95;;;;;;;1.69;85.07;94368.31;5108866;28;20225;-80
2023/01/28 10:39:05;;;;;;;5.53;3.47;;;;;;;1.38;86.81;94363.19;5108623;28;20577;-78
2023/01/28 10:41:32;;;;;;;5.13;2.10;;;;;;;1.52;86.84;94362.56;5109610;28;20225;-80
2023/01/28 10:43:59;;;;;;;4.07;2.95;;;;;;;1.60;85.90;94360.13;5110197;28;20206;-80
2023/01/28 10:46:30;;;;;;;7.65;2.67;;;;;;;1.53;85.34;94356.97;5110256;28;20605;-80
2023/01/28 10:49:03;;;;;;;6.50;3.05;;;;;;;1.72;84.76;94351.75;5109489;28;20209;-77
2023/01/28 10:51:36;;;;;;;2.63;1.90;;;;;;;1.87;84.74;94348.97;5098769;28;20213;-78
2023/01/28 10:54:17;;;;;;;5.13;3.00;;;;;;;1.90;83.47;94348.41;5112745;28;20219;-78
2023/01/28 10:56:44;;;;;;;5.88;2.88;;;;;;;1.83;83.86;94357.81;5112770;28;20228;-76
2023/01/28 10:59:20;;;;;;;4.93;2.35;;;;;;;1.80;84.14;94353.81;5103700;28;20426;-77
2023/01/28 11:01:50;;;;;;;4.13;2.45;;;;;;;1.69;85.32;94357.66;5111103;28;20254;-76
2023/01/28 11:04:20;;;;;;;5.95;3.15;;;;;;;1.77;84.86;94346.38;5111577;28;20193;-77
2023/01/28 11:07:01;;;;;;;2.50;1.70;;;;;;;1.95;84.02;94350.22;5090763;28;20202;-77
2023/01/28 11:09:30;;;;;;;3.17;2.17;;;;;;;2.09;83.52;94346.63;5106708;28;20693;-78
2023/01/28 11:11:57;;;;;;;6.80;3.17;;;;;;;1.93;82.63;94350.50;5111837;28;20206;-76
2023/01/28 11:14:26;;;;;;;4.40;2.38;;;;;;;1.66;84.05;94348.31;5110928;28;20770;-78
2023/01/28 11:16:55;;;;;;;6.47;2.92;;;;;;;1.71;83.26;94344.81;5111088;28;20208;-78
2023/01/28 11:19:30;;;;;;;4.68;2.72;;;;;;;1.66;83.77;94352.88;5111894;28;20612;-77
2023/01/28 11:21:59;;;;;;;3.78;1.90;;;;;;;1.85;83.02;94351.13;5112528;28;20297;-79
2023/01/28 11:24:29;;;;;;;2.38;1.80;;;;;;;1.86;82.46;94342.03;5111928;28;20222;-80
2023/01/28 11:26:59;;;;;;;3.00;2.30;;;;;;;1.70;82.63;94356.56;5111886;28;20292;-79
2023/01/28 11:29:30;;;;;;;5.38;2.30;;;;;;;1.72;82.49;94347.22;5111402;28;20200;-77
2023/01/28 11:31:59;;;;;;;5.05;2.78;;;;;;;1.68;83.56;94337.38;5111005;28;20197;-77
2023/01/28 11:34:28;;;;;;;6.45;2.00;;;;;;;1.95;82.91;94335.00;5111497;28;20292;-82
2023/01/28 11:37:04;;;;;;;2.95;2.28;;;;;;;1.98;82.63;94339.78;5112174;28;20190;-77
2023/01/28 11:39:31;;;;;;;4.05;2.28;;;;;;;1.73;82.27;94345.34;5111480;28;20225;-78
2023/01/28 11:42:19;;;;;;;3.85;2.20;;;;;;;1.89;82.27;94341.47;5111781;28;20201;-81
2023/01/28 11:44:49;;;;;;;3.22;1.92;;;;;;;1.98;82.03;94344.34;5111606;28;20413;-78
2023/01/28 11:47:26;;;;;;;3.47;2.33;;;;;;;2.11;81.44;94338.34;5112207;28;20231;-78
2023/01/28 11:50:15;;;;;;;2.53;2.33;;;;;;;1.99;81.58;94344.06;5111168;28;20559;-79
2023/01/28 11:52:55;;;;;;;6.05;3.00;;;;;;;1.74;81.52;94344.28;5113119;28;20202;-80
2023/01/28 11:55:37;;;;;;;4.28;3.00;;;;;;;1.60;81.98;94337.97;5111856;28;20328;-77
2023/01/28 11:58:15;;;;;;;5.45;2.20;;;;;;;1.86;81.58;94336.69;5110015;28;20251;-79
2023/01/28 12:00:51;;;;;;;3.53;2.05;;;;;;;2.05;80.77;94339.47;5111919;28;20258;-78
2023/01/28 12:03:36;;;;;;;3.28;1.92;;;;;;;2.06;80.33;94331.16;5111941;28;20197;-81
2023/01/28 12:06:22;;;;;;;6.30;2.97;;;;;;;1.99;80.35;94340.59;5112390;28;20745;-78
2023/01/28 12:09:01;;;;;;;3.10;2.17;;;;;;;1.68;80.42;94345.38;5111381;28;20197;-78
2023/01/28 12:14:32;;;;;;;5.00;2.70;;;;;;;1.99;80.69;94345.94;5111587;28;20563;-77
2023/01/28 12:17:12;;;;;;;7.25;2.95;;;;;;;1.88;80.80;94339.09;5111443;28;20201;-76
2023/01/28 12:19:50;;;;;;;4.32;2.50;;;;;;;1.99;80.16;94346.72;5109755;28;20201;-76
2023/01/28 12:22:54;;;;;;;3.35;2.17;;;;;;;2.14;80.12;94343.91;5110514;28;20748;-76
2023/01/28 12:25:33;;;;;;;4.70;2.92;;;;;;;2.02;80.51;94335.50;5073621;28;20201;-78
2023/01/28 12:28:10;;;;;;;3.22;2.08;;;;;;;1.99;81.44;94341.38;5098359;28;20234;-79